createdAt,value
2018-11-10T00:00:18.505Z,2.79
2018-11-10T00:02:48.230Z,2.78
2018-11-10T00:05:17.659Z,2.80
2018-11-10T00:07:46.561Z,2.79
2018-11-10T00:10:15.760Z,2.66
2018-11-10T00:12:45.188Z,2.70
2018-11-10T00:15:15.143Z,2.62
2018-11-10T00:17:44.322Z,2.56
2018-11-10T00:20:13.296Z,2.56
2018-11-10T00:22:43.134Z,2.60
2018-11-10T00:25:13.018Z,2.62
2018-11-10T00:27:43.200Z,2.61
2018-11-10T00:30:13.698Z,2.41
2018-11-10T00:32:43.266Z,2.52
2018-11-10T00:35:11.989Z,2.54
2018-11-10T00:37:40.754Z,2.60
2018-11-10T00:40:11.576Z,2.54
2018-11-10T00:42:41.143Z,2.47
2018-11-10T00:45:10.803Z,2.41
2018-11-10T00:47:39.849Z,2.36
2018-11-10T00:50:09.368Z,2.37
2018-11-10T00:52:38.585Z,2.26
2018-11-10T00:55:08.520Z,2.28
2018-11-10T00:57:37.351Z,2.33
2018-11-10T01:00:06.361Z,2.29
2018-11-10T01:02:35.234Z,2.25
2018-11-10T01:05:04.106Z,2.23
2018-11-10T01:07:32.901Z,2.25
2018-11-10T01:10:01.904Z,2.29
2018-11-10T01:12:30.879Z,2.20
2018-11-10T01:15:00.499Z,2.13
2018-11-10T01:17:29.455Z,2.15
2018-11-10T01:19:58.443Z,2.15
2018-11-10T01:22:27.764Z,2.04
2018-11-10T01:24:57.169Z,2.10
2018-11-10T01:27:26.545Z,2.11
2018-11-10T01:29:55.769Z,1.98
2018-11-10T01:32:24.874Z,2.01
2018-11-10T01:34:55.165Z,2.05
2018-11-10T01:37:24.284Z,2.05
2018-11-10T01:39:53.205Z,2.02
2018-11-10T01:42:23.884Z,2.05
2018-11-10T01:44:53.111Z,2.03
2018-11-10T01:47:22.292Z,2.10
2018-11-10T01:49:51.405Z,1.92
2018-11-10T01:52:20.644Z,1.91
2018-11-10T01:54:49.701Z,1.91
2018-11-10T01:57:18.782Z,1.99
2018-11-10T01:59:47.615Z,1.94
2018-11-10T02:02:16.592Z,1.97
2018-11-10T02:04:45.646Z,1.93
2018-11-10T02:07:15.880Z,1.93
2018-11-10T02:09:45.160Z,1.92
2018-11-10T02:12:14.388Z,1.88
2018-11-10T02:14:43.278Z,1.91
2018-11-10T02:17:12.140Z,1.79
2018-11-10T02:19:40.780Z,1.57
2018-11-10T02:22:10.290Z,1.61
2018-11-10T02:24:39.188Z,1.69
2018-11-10T02:27:13.849Z,1.62
2018-11-10T02:29:42.856Z,1.70
2018-11-10T02:32:12.021Z,1.90
2018-11-10T02:34:40.885Z,1.90
2018-11-10T02:37:10.500Z,1.87
2018-11-10T02:39:39.484Z,1.98
2018-11-10T02:42:08.315Z,2.07
2018-11-10T02:44:37.277Z,2.17
2018-11-10T02:47:06.664Z,2.27
2018-11-10T02:49:35.765Z,2.29
2018-11-10T02:52:05.794Z,2.32
2018-11-10T02:54:34.834Z,2.25
2018-11-10T02:57:03.996Z,2.23
2018-11-10T02:59:32.741Z,2.28
2018-11-10T03:02:01.602Z,2.37
2018-11-10T03:04:30.145Z,2.42
2018-11-10T03:06:59.190Z,2.59
2018-11-10T03:09:28.721Z,2.67
2018-11-10T03:11:58.135Z,2.65
2018-11-10T03:14:27.016Z,2.64
2018-11-10T03:16:56.124Z,2.62
2018-11-10T03:19:25.296Z,2.68
2018-11-10T03:21:54.876Z,2.69
2018-11-10T03:24:23.656Z,2.75
2018-11-10T03:26:52.983Z,2.67
2018-11-10T03:29:22.160Z,2.69
2018-11-10T03:31:52.021Z,2.75
2018-11-10T03:34:20.724Z,2.79
2018-11-10T03:36:49.707Z,2.78
2018-11-10T03:39:19.289Z,2.77
2018-11-10T03:41:48.041Z,2.81
2018-11-10T03:44:17.786Z,2.86
2018-11-10T03:46:46.473Z,2.95
2018-11-10T03:49:16.015Z,3.04
2018-11-10T03:51:45.039Z,3.11
2018-11-10T03:54:13.857Z,3.09
2018-11-10T03:56:42.384Z,3.10
2018-11-10T03:59:11.905Z,3.13
2018-11-10T04:01:40.867Z,3.20
2018-11-10T04:04:11.329Z,3.14
2018-11-10T04:06:40.639Z,3.17
2018-11-10T04:09:09.995Z,3.20
2018-11-10T04:11:39.020Z,3.19
2018-11-10T04:14:08.096Z,3.22
2018-11-10T04:16:37.469Z,3.29
2018-11-10T04:19:06.662Z,3.30
2018-11-10T04:21:35.535Z,3.34
2018-11-10T04:24:05.135Z,3.34
2018-11-10T04:26:34.015Z,3.41
2018-11-10T04:29:03.566Z,3.43
2018-11-10T04:31:32.281Z,3.48
2018-11-10T04:34:01.045Z,3.52
2018-11-10T04:36:29.932Z,3.49
2018-11-10T04:38:59.551Z,3.52
2018-11-10T04:41:28.343Z,3.54
2018-11-10T04:43:58.037Z,3.55
2018-11-10T04:46:27.416Z,3.55
2018-11-10T04:48:57.013Z,3.55
2018-11-10T04:51:25.579Z,3.59
2018-11-10T04:53:54.691Z,3.61
2018-11-10T04:56:23.657Z,3.62
2018-11-10T04:58:53.394Z,3.62
2018-11-10T05:01:22.216Z,3.65
2018-11-10T05:03:50.962Z,3.67
2018-11-10T05:06:19.936Z,3.69
2018-11-10T05:08:49.236Z,3.71
2018-11-10T05:11:18.329Z,3.76
2018-11-10T05:13:47.265Z,3.80
2018-11-10T05:16:16.790Z,3.80
2018-11-10T05:18:46.013Z,3.84
2018-11-10T05:21:14.691Z,3.90
2018-11-10T05:23:43.581Z,3.92
2018-11-10T05:26:12.331Z,3.91
2018-11-10T05:28:41.095Z,3.97
2018-11-10T05:31:10.321Z,3.97
2018-11-10T05:33:39.429Z,3.98
2018-11-10T05:36:08.556Z,3.96
2018-11-10T05:38:37.204Z,3.95
2018-11-10T05:41:06.307Z,3.93
2018-11-10T05:43:35.370Z,3.93
2018-11-10T05:46:04.627Z,3.93
2018-11-10T05:48:33.871Z,3.93
2018-11-10T05:51:02.856Z,3.94
2018-11-10T05:53:32.262Z,4.02
2018-11-10T05:56:01.518Z,4.06
2018-11-10T05:58:30.875Z,4.04
2018-11-10T06:00:59.857Z,4.04
2018-11-10T06:03:28.699Z,4.06
2018-11-10T06:05:57.507Z,4.12
2018-11-10T06:08:27.588Z,4.14
2018-11-10T06:10:56.795Z,4.16
2018-11-10T06:13:25.997Z,4.19
2018-11-10T06:15:55.144Z,4.16
2018-11-10T06:18:24.473Z,4.17
2018-11-10T06:20:53.369Z,4.22
2018-11-10T06:23:23.010Z,4.24
2018-11-10T06:25:52.240Z,4.23
2018-11-10T06:28:22.441Z,4.27
2018-11-10T06:30:51.577Z,4.30
2018-11-10T06:33:20.810Z,4.30
2018-11-10T06:35:50.239Z,4.34
2018-11-10T06:38:19.355Z,4.41
2018-11-10T06:40:48.288Z,4.48
2018-11-10T06:43:17.030Z,4.54
2018-11-10T06:45:46.267Z,4.59
2018-11-10T06:48:15.132Z,4.61
2018-11-10T06:50:44.531Z,4.62
2018-11-10T06:53:13.252Z,4.64
2018-11-10T06:55:42.151Z,4.70
2018-11-10T06:58:11.001Z,4.76
2018-11-10T07:00:39.766Z,4.77
2018-11-10T07:03:08.529Z,4.81
2018-11-10T07:05:37.806Z,4.84
2018-11-10T07:08:07.286Z,4.83
2018-11-10T07:10:36.241Z,4.84
2018-11-10T07:13:05.857Z,4.86
2018-11-10T07:15:34.783Z,4.86
2018-11-10T07:18:03.885Z,4.90
2018-11-10T07:20:32.987Z,4.94
2018-11-10T07:23:02.315Z,4.99
2018-11-10T07:25:31.172Z,5.06
2018-11-10T07:28:00.103Z,5.15
2018-11-10T07:30:29.056Z,5.22
2018-11-10T07:32:58.259Z,5.23
2018-11-10T07:35:27.535Z,5.33
2018-11-10T07:37:56.669Z,5.47
2018-11-10T07:40:25.953Z,5.51
2018-11-10T07:42:55.069Z,5.57
2018-11-10T07:45:28.181Z,5.59
2018-11-10T07:47:58.908Z,5.65
2018-11-10T07:50:28.397Z,5.72
2018-11-10T07:52:58.254Z,5.78
2018-11-10T07:55:27.701Z,5.79
2018-11-10T07:57:57.568Z,5.84
2018-11-10T08:00:27.553Z,5.82
2018-11-10T08:02:57.671Z,5.88
2018-11-10T08:05:27.037Z,5.91
2018-11-10T08:07:56.387Z,5.92
2018-11-10T08:10:25.723Z,5.92
2018-11-10T08:12:55.068Z,5.89
2018-11-10T08:15:24.678Z,5.94
2018-11-10T08:17:54.143Z,5.93
2018-11-10T08:20:23.293Z,6.03
2018-11-10T08:22:53.034Z,6.10
2018-11-10T08:25:21.997Z,6.11
2018-11-10T08:27:51.017Z,6.22
2018-11-10T08:30:20.121Z,6.32
2018-11-10T08:32:49.451Z,6.40
2018-11-10T08:35:18.512Z,6.48
2018-11-10T08:37:47.401Z,6.53
2018-11-10T08:40:17.181Z,6.61
2018-11-10T08:42:46.731Z,6.63
2018-11-10T08:45:16.316Z,6.60
2018-11-10T08:47:45.834Z,6.70
2018-11-10T08:50:16.040Z,6.82
2018-11-10T08:52:46.068Z,6.94
2018-11-10T08:55:15.177Z,7.07
2018-11-10T08:57:44.694Z,7.22
2018-11-10T09:00:13.899Z,7.23
2018-11-10T09:02:42.972Z,7.29
2018-11-10T09:05:13.231Z,7.37
2018-11-10T09:07:42.913Z,7.44
2018-11-10T09:10:13.491Z,7.53
2018-11-10T09:12:42.324Z,7.68
2018-11-10T09:15:14.359Z,7.73
2018-11-10T09:17:43.465Z,8.06
2018-11-10T09:20:14.463Z,8.38
2018-11-10T09:22:43.781Z,8.68
2018-11-10T09:25:14.596Z,9.17
2018-11-10T09:27:43.878Z,9.54
2018-11-10T09:30:16.818Z,10.16
2018-11-10T09:32:46.356Z,10.52
2018-11-10T09:35:16.816Z,10.93
2018-11-10T09:37:45.754Z,11.18
2018-11-10T09:40:15.664Z,11.64
2018-11-10T09:42:45.246Z,11.88
2018-11-10T09:45:16.243Z,12.41
2018-11-10T09:47:45.533Z,12.94
2018-11-10T09:50:17.019Z,13.10
2018-11-10T09:52:47.140Z,13.48
2018-11-10T09:55:17.178Z,13.79
2018-11-10T09:57:46.276Z,13.84
2018-11-10T10:00:17.513Z,14.01
2018-11-10T10:02:47.274Z,14.42
2018-11-10T10:05:15.869Z,15.83
2018-11-10T10:07:45.231Z,17.44
2018-11-10T10:10:16.219Z,17.33
2018-11-10T10:12:46.292Z,17.40
2018-11-10T10:15:16.608Z,18.57
2018-11-10T10:17:45.952Z,19.54
2018-11-10T10:20:16.988Z,20.46
2018-11-10T10:22:47.826Z,21.58
2018-11-10T10:25:18.083Z,22.36
2018-11-10T10:27:47.793Z,23.37
2018-11-10T10:30:18.753Z,23.10
2018-11-10T10:32:48.682Z,24.01
2018-11-10T10:35:18.453Z,24.68
2018-11-10T10:37:48.538Z,24.54
2018-11-10T10:40:18.027Z,24.15
2018-11-10T10:42:47.441Z,23.70
2018-11-10T10:45:21.874Z,23.94
2018-11-10T10:47:54.278Z,25.23
2018-11-10T10:50:23.682Z,25.78
2018-11-10T10:52:52.577Z,26.33
2018-11-10T10:55:22.008Z,26.86
2018-11-10T10:57:51.387Z,27.03
2018-11-10T11:00:25.368Z,27.85
2018-11-10T11:02:56.240Z,27.28
2018-11-10T11:05:30.244Z,27.19
2018-11-10T11:07:59.573Z,26.07
2018-11-10T11:10:28.774Z,24.35
2018-11-10T11:12:57.998Z,24.77
2018-11-10T11:15:27.284Z,23.95
2018-11-10T11:17:56.710Z,23.60
2018-11-10T11:20:25.956Z,22.96
2018-11-10T11:22:55.056Z,24.29
2018-11-10T11:25:23.966Z,24.89
2018-11-10T11:27:53.632Z,24.91
2018-11-10T11:30:22.903Z,24.09
2018-11-10T11:32:52.372Z,23.51
2018-11-10T11:35:22.231Z,23.69
2018-11-10T11:37:51.237Z,22.38
2018-11-10T11:40:20.137Z,22.46
2018-11-10T11:42:49.854Z,22.56
2018-11-10T11:45:19.019Z,22.20
2018-11-10T11:47:48.407Z,21.80
2018-11-10T11:50:17.542Z,22.34
2018-11-10T11:52:47.597Z,22.30
2018-11-10T11:55:16.770Z,22.07
2018-11-10T11:57:46.103Z,20.98
2018-11-10T12:00:16.342Z,20.94
2018-11-10T12:02:45.775Z,21.32
2018-11-10T12:05:15.929Z,21.03
2018-11-10T12:07:46.498Z,20.60
2018-11-10T12:10:17.094Z,20.64
2018-11-10T12:12:46.344Z,20.45
2018-11-10T12:15:17.058Z,20.05
2018-11-10T12:17:46.664Z,20.34
2018-11-10T12:20:16.190Z,20.27
2018-11-10T12:22:45.158Z,20.09
2018-11-10T12:25:14.836Z,19.87
2018-11-10T12:27:44.303Z,19.83
2018-11-10T12:30:13.879Z,19.87
2018-11-10T12:32:42.810Z,19.89
2018-11-10T12:35:13.376Z,19.63
2018-11-10T12:37:43.492Z,19.56
2018-11-10T12:40:13.685Z,19.69
2018-11-10T12:42:43.155Z,19.69
2018-11-10T12:45:13.264Z,20.21
2018-11-10T12:47:42.912Z,20.41
2018-11-10T12:50:13.952Z,20.27
2018-11-10T12:52:43.866Z,19.84
2018-11-10T12:55:14.871Z,19.83
2018-11-10T12:57:48.054Z,19.56
2018-11-10T13:00:19.076Z,19.44
2018-11-10T13:02:49.399Z,19.25
2018-11-10T13:05:19.309Z,19.37
2018-11-10T13:07:48.895Z,19.06
2018-11-10T13:10:18.198Z,19.03
2018-11-10T13:12:47.201Z,18.88
2018-11-10T13:15:16.388Z,18.86
2018-11-10T13:17:45.797Z,18.68
2018-11-10T13:20:15.738Z,18.65
2018-11-10T13:22:44.989Z,18.72
2018-11-10T13:25:14.673Z,18.66
2018-11-10T13:27:43.693Z,18.55
2018-11-10T13:30:14.433Z,18.55
2018-11-10T13:32:43.725Z,18.71
2018-11-10T13:35:14.152Z,18.62
2018-11-10T13:37:43.364Z,18.76
2018-11-10T13:40:13.482Z,18.81
2018-11-10T13:42:42.975Z,18.72
2018-11-10T13:45:13.682Z,18.87
2018-11-10T13:47:43.314Z,19.00
2018-11-10T13:50:14.228Z,19.36
2018-11-10T13:52:44.866Z,19.63
2018-11-10T13:55:14.749Z,19.66
2018-11-10T13:57:43.779Z,19.70
2018-11-10T14:00:14.773Z,19.56
2018-11-10T14:02:43.891Z,19.36
2018-11-10T14:05:13.207Z,18.87
2018-11-10T14:07:43.179Z,18.65
2018-11-10T14:10:13.794Z,18.45
2018-11-10T14:12:44.254Z,18.30
2018-11-10T14:15:13.319Z,18.16
2018-11-10T14:17:42.752Z,17.90
2018-11-10T14:20:13.375Z,17.58
2018-11-10T14:22:42.843Z,17.52
2018-11-10T14:25:14.021Z,17.17
2018-11-10T14:27:44.647Z,16.96
2018-11-10T14:30:15.435Z,16.95
2018-11-10T14:32:46.931Z,16.68
2018-11-10T14:35:15.882Z,16.56
2018-11-10T14:39:10.072Z,16.31
2018-11-10T14:41:39.047Z,16.13
2018-11-10T14:44:09.252Z,16.20
2018-11-10T14:46:38.604Z,16.05
2018-11-10T14:49:08.309Z,15.91
2018-11-10T14:51:37.894Z,15.89
2018-11-10T14:54:06.671Z,15.67
2018-11-10T14:56:35.541Z,15.66
2018-11-10T14:59:05.335Z,15.62
2018-11-10T15:01:34.271Z,15.53
2018-11-10T15:04:03.191Z,15.43
2018-11-10T15:06:32.845Z,15.11
2018-11-10T15:09:01.790Z,15.08
2018-11-10T15:11:30.775Z,14.76
2018-11-10T15:14:00.044Z,14.49
2018-11-10T15:16:29.357Z,14.42
2018-11-10T15:18:58.611Z,14.41
2018-11-10T15:21:27.645Z,14.36
2018-11-10T15:23:56.434Z,14.21
2018-11-10T15:26:25.125Z,14.03
2018-11-10T15:28:53.911Z,14.07
2018-11-10T15:31:22.765Z,13.84
2018-11-10T15:33:51.771Z,13.49
2018-11-10T15:37:52.747Z,13.80
2018-11-10T15:40:23.367Z,13.98
2018-11-10T15:42:53.121Z,13.84
2018-11-10T15:45:22.334Z,13.65
2018-11-10T15:47:51.647Z,13.29
2018-11-10T15:50:20.771Z,13.36
2018-11-10T15:52:50.069Z,13.44
2018-11-10T15:55:19.300Z,13.44
2018-11-10T15:57:48.353Z,13.37
2018-11-10T16:00:18.845Z,13.02
2018-11-10T16:02:47.804Z,13.07
2018-11-10T16:05:17.135Z,13.18
2018-11-10T16:07:46.299Z,13.10
2018-11-10T16:10:15.101Z,13.08
2018-11-10T16:12:45.670Z,12.98
2018-11-10T16:15:17.115Z,12.95
2018-11-10T16:17:46.176Z,12.86
2018-11-10T16:20:17.360Z,12.76
2018-11-10T16:22:48.535Z,12.71
2018-11-10T16:25:17.923Z,12.60
2018-11-10T16:27:47.211Z,12.46
2018-11-10T16:30:17.364Z,12.51
2018-11-10T16:32:46.401Z,12.52
2018-11-10T16:35:15.532Z,12.42
2018-11-10T16:37:44.936Z,12.40
2018-11-10T16:40:16.505Z,12.41
2018-11-10T16:42:46.814Z,12.38
2018-11-10T16:45:16.376Z,12.37
2018-11-10T16:47:45.376Z,12.28
2018-11-10T16:50:14.272Z,12.19
2018-11-10T16:52:43.946Z,12.03
2018-11-10T16:55:13.873Z,12.06
2018-11-10T16:57:43.387Z,12.11
2018-11-10T17:00:16.195Z,12.08
2018-11-10T17:02:45.023Z,12.07
2018-11-10T17:05:13.963Z,11.93
2018-11-10T17:07:42.856Z,11.94
2018-11-10T17:10:14.670Z,11.94
2018-11-10T17:12:43.795Z,11.76
2018-11-10T17:15:14.088Z,11.60
2018-11-10T17:17:43.403Z,11.62
2018-11-10T17:20:15.355Z,11.59
2018-11-10T17:22:44.643Z,11.60
2018-11-10T17:25:14.704Z,11.64
2018-11-10T17:27:43.919Z,11.60
2018-11-10T17:30:15.059Z,11.60
2018-11-10T17:32:44.135Z,11.58
2018-11-10T17:35:13.925Z,11.56
2018-11-10T17:37:42.695Z,11.54
2018-11-10T17:40:12.412Z,11.49
2018-11-10T17:42:41.404Z,11.41
2018-11-10T17:45:15.410Z,11.42
2018-11-10T17:47:44.478Z,11.37
2018-11-10T17:50:14.565Z,11.37
2018-11-10T17:52:44.109Z,11.31
2018-11-10T17:55:13.895Z,11.31
2018-11-10T17:57:43.267Z,11.30
2018-11-10T18:00:12.741Z,11.29
2018-11-10T18:02:41.634Z,11.24
2018-11-10T18:05:12.796Z,11.23
2018-11-10T18:07:42.166Z,11.22
2018-11-10T18:10:13.101Z,11.19
2018-11-10T18:12:42.538Z,11.17
2018-11-10T18:15:13.272Z,11.14
2018-11-10T18:17:42.723Z,11.15
2018-11-10T18:20:13.338Z,11.07
2018-11-10T18:22:42.530Z,11.04
2018-11-10T18:25:11.682Z,11.00
2018-11-10T18:27:41.766Z,10.81
2018-11-10T18:30:12.603Z,10.84
2018-11-10T18:32:41.530Z,10.83
2018-11-10T18:35:11.208Z,10.78
2018-11-10T18:37:40.676Z,10.77
2018-11-10T18:40:11.114Z,10.77
2018-11-10T18:42:40.256Z,10.74
2018-11-10T18:45:10.540Z,10.73
2018-11-10T18:47:40.010Z,10.69
2018-11-10T18:50:11.302Z,10.64
2018-11-10T18:52:40.121Z,10.71
2018-11-10T18:55:10.207Z,10.74
2018-11-10T18:57:39.590Z,10.73
2018-11-10T19:00:10.491Z,10.70
2018-11-10T19:02:39.546Z,10.69
2018-11-10T19:05:10.132Z,10.68
2018-11-10T19:07:39.077Z,10.61
2018-11-10T19:10:09.777Z,10.64
2018-11-10T19:12:39.608Z,10.61
2018-11-10T19:15:11.105Z,10.51
2018-11-10T19:17:40.698Z,10.42
2018-11-10T19:20:10.845Z,10.42
2018-11-10T19:22:42.221Z,10.37
2018-11-10T19:25:13.405Z,10.36
2018-11-10T19:27:42.677Z,10.37
2018-11-10T19:30:14.738Z,10.38
2018-11-10T19:32:45.072Z,10.42
2018-11-10T19:35:15.336Z,10.42
2018-11-10T19:37:44.833Z,10.41
2018-11-10T19:40:14.095Z,10.38
2018-11-10T19:42:44.876Z,10.35
2018-11-10T19:45:14.335Z,10.35
2018-11-10T19:47:44.213Z,10.37
2018-11-10T19:50:13.845Z,10.34
2018-11-10T19:52:42.940Z,10.34
2018-11-10T19:55:14.194Z,10.33
2018-11-10T19:57:44.124Z,10.33
2018-11-10T20:00:16.947Z,10.31
2018-11-10T20:02:46.971Z,10.33
2018-11-10T20:05:18.056Z,10.32
2018-11-10T20:07:47.069Z,10.31
2018-11-10T20:10:16.397Z,10.32
2018-11-10T20:12:46.170Z,10.27
2018-11-10T20:15:17.339Z,10.20
2018-11-10T20:17:46.880Z,10.16
2018-11-10T20:20:17.655Z,10.15
2018-11-10T20:22:48.402Z,10.14
2018-11-10T20:25:19.266Z,10.08
2018-11-10T20:27:48.259Z,10.09
2018-11-10T20:30:18.637Z,10.09
2018-11-10T20:32:48.119Z,10.08
2018-11-10T20:35:17.099Z,10.04
2018-11-10T20:37:46.775Z,10.02
2018-11-10T20:40:16.925Z,10.03
2018-11-10T20:42:46.307Z,9.98
2018-11-10T20:45:17.096Z,9.93
2018-11-10T20:47:47.097Z,9.95
2018-11-10T20:50:17.285Z,9.90
2018-11-10T20:52:46.566Z,9.89
2018-11-10T20:55:16.010Z,9.88
2018-11-10T20:57:45.114Z,9.83
2018-11-10T21:00:15.932Z,9.83
2018-11-10T21:02:45.600Z,9.78
2018-11-10T21:05:15.381Z,9.72
2018-11-10T21:07:44.741Z,9.67
2018-11-10T21:10:16.424Z,9.69
2018-11-10T21:12:46.301Z,9.70
2018-11-10T21:15:15.917Z,9.67
2018-11-10T21:17:45.287Z,9.65
2018-11-10T21:20:15.595Z,9.67
2018-11-10T21:22:45.353Z,9.66
2018-11-10T21:25:16.640Z,9.62
2018-11-10T21:27:46.232Z,9.52
2018-11-10T21:30:17.272Z,9.47
2018-11-10T21:32:46.753Z,9.29
2018-11-10T21:35:15.883Z,9.28
2018-11-10T21:37:45.151Z,9.32
2018-11-10T21:40:15.629Z,9.35
2018-11-10T21:42:44.798Z,9.37
2018-11-10T21:45:14.831Z,9.34
2018-11-10T21:47:44.117Z,9.33
2018-11-10T21:50:15.287Z,9.33
2018-11-10T21:52:45.233Z,9.35
2018-11-10T21:55:16.507Z,9.28
2018-11-10T21:57:46.308Z,9.23
2018-11-10T22:00:17.266Z,9.24
2018-11-10T22:02:53.111Z,9.22
2018-11-10T22:05:22.172Z,9.22
2018-11-10T22:07:51.397Z,9.22
2018-11-10T22:10:20.546Z,9.23
2018-11-10T22:12:49.701Z,9.18
2018-11-10T22:15:21.016Z,9.20
2018-11-10T22:17:50.181Z,9.17
2018-11-10T22:20:20.386Z,9.13
2018-11-10T22:22:50.474Z,9.15
2018-11-10T22:25:19.945Z,9.18
2018-11-10T22:27:51.147Z,9.16
2018-11-10T22:30:21.225Z,9.16
2018-11-10T22:32:50.687Z,9.15
2018-11-10T22:35:19.586Z,9.14
2018-11-10T22:37:48.623Z,9.01
2018-11-10T22:40:19.309Z,8.92
2018-11-10T22:42:48.556Z,8.91
2018-11-10T22:45:19.588Z,8.94
2018-11-10T22:47:48.605Z,9.01
2018-11-10T22:50:19.039Z,8.99
2018-11-10T22:52:48.093Z,9.04
2018-11-10T22:55:17.197Z,9.05
2018-11-10T22:57:46.128Z,9.05
2018-11-10T23:00:21.362Z,9.02
2018-11-10T23:02:52.452Z,9.04
2018-11-10T23:05:21.869Z,9.02
2018-11-10T23:07:51.145Z,9.00
2018-11-10T23:10:20.999Z,8.93
2018-11-10T23:12:50.626Z,8.88
2018-11-10T23:15:19.403Z,8.95
2018-11-10T23:17:49.102Z,8.99
2018-11-10T23:20:18.844Z,8.96
2018-11-10T23:22:48.505Z,9.00
2018-11-10T23:25:18.070Z,9.01
2018-11-10T23:27:47.741Z,9.03
2018-11-10T23:30:19.699Z,8.94
2018-11-10T23:32:49.205Z,8.85
2018-11-10T23:35:18.088Z,8.78
2018-11-10T23:37:46.811Z,8.85
2018-11-10T23:40:16.428Z,8.89
2018-11-10T23:42:45.231Z,8.90
2018-11-10T23:45:14.644Z,8.92
2018-11-10T23:47:44.511Z,8.98
2018-11-10T23:50:14.647Z,8.97
2018-11-10T23:52:43.491Z,8.92
2018-11-10T23:55:13.095Z,8.91
2018-11-10T23:57:42.406Z,8.88
